createdAt,value
2019-03-27T00:01:49.519Z,23.43
2019-03-27T00:04:16.817Z,17.93
2019-03-27T00:06:44.151Z,17.20
2019-03-27T00:09:11.459Z,12.40
2019-03-27T00:11:39.668Z,21.50
2019-03-27T00:14:06.885Z,18.07
2019-03-27T00:16:33.875Z,17.20
2019-03-27T00:19:00.755Z,20.50
2019-03-27T00:21:28.039Z,25.00
2019-03-27T00:23:55.014Z,14.63
2019-03-27T00:26:21.901Z,14.60
2019-03-27T00:28:48.814Z,18.23
2019-03-27T00:31:16.003Z,15.97
2019-03-27T00:33:43.511Z,19.30
2019-03-27T00:36:11.071Z,14.77
2019-03-27T00:38:38.635Z,15.27
2019-03-27T00:41:05.722Z,14.13
2019-03-27T00:43:33.242Z,10.77
2019-03-27T00:46:01.294Z,15.97
2019-03-27T00:48:29.143Z,14.20
2019-03-27T00:50:56.634Z,8.57
2019-03-27T00:53:23.896Z,19.23
2019-03-27T00:55:50.783Z,12.87
2019-03-27T00:58:18.031Z,20.67
2019-03-27T01:01:04.391Z,20.47
2019-03-27T01:03:31.631Z,15.47
2019-03-27T01:05:59.135Z,10.47
2019-03-27T01:08:26.544Z,12.27
2019-03-27T01:10:53.526Z,18.23
2019-03-27T01:13:20.431Z,16.13
2019-03-27T01:15:47.346Z,9.00
2019-03-27T01:18:14.534Z,17.63
2019-03-27T01:20:41.455Z,16.67
2019-03-27T01:23:08.435Z,22.67
2019-03-27T01:25:35.831Z,27.27
2019-03-27T01:28:03.298Z,20.33
2019-03-27T01:30:30.302Z,12.83
2019-03-27T01:32:57.623Z,21.93
2019-03-27T01:35:24.935Z,24.07
2019-03-27T01:37:51.811Z,17.53
2019-03-27T01:40:18.702Z,26.17
2019-03-27T01:42:45.623Z,14.87
2019-03-27T01:45:12.615Z,26.70
2019-03-27T01:47:40.123Z,26.33
2019-03-27T01:50:08.915Z,21.93
2019-03-27T01:52:36.064Z,12.33
2019-03-27T01:55:03.511Z,17.20
2019-03-27T01:57:30.769Z,25.87
2019-03-27T01:59:57.914Z,11.47
2019-03-27T02:02:25.782Z,20.37
2019-03-27T02:04:52.958Z,17.83
2019-03-27T02:07:20.191Z,17.57
2019-03-27T02:09:47.747Z,9.47
2019-03-27T02:12:14.994Z,15.40
2019-03-27T02:14:42.345Z,13.23
2019-03-27T02:17:09.498Z,16.43
2019-03-27T02:19:37.266Z,17.33
2019-03-27T02:22:04.414Z,20.10
2019-03-27T02:24:32.074Z,17.53
2019-03-27T02:26:59.637Z,16.70
2019-03-27T02:29:26.860Z,16.40
2019-03-27T02:31:54.157Z,24.70
2019-03-27T02:34:21.702Z,26.27
2019-03-27T02:36:48.620Z,20.63
2019-03-27T02:39:15.868Z,17.20
2019-03-27T02:41:43.186Z,26.03
2019-03-27T02:44:10.375Z,9.53
2019-03-27T02:46:37.652Z,19.67
2019-03-27T02:49:04.577Z,13.77
2019-03-27T02:51:32.712Z,26.17
2019-03-27T02:53:59.604Z,16.67
2019-03-27T02:56:26.529Z,18.50
2019-03-27T02:58:54.019Z,18.40
2019-03-27T03:01:20.924Z,15.70
2019-03-27T03:03:48.257Z,15.87
2019-03-27T03:06:15.251Z,15.73
2019-03-27T03:08:42.165Z,10.53
2019-03-27T03:11:09.484Z,29.60
2019-03-27T03:13:36.810Z,20.80
2019-03-27T03:16:03.811Z,16.60
2019-03-27T03:18:31.009Z,16.83
2019-03-27T03:20:57.888Z,21.00
2019-03-27T03:23:24.936Z,18.20
2019-03-27T03:25:52.555Z,16.33
2019-03-27T03:28:19.791Z,19.23
2019-03-27T03:30:47.370Z,15.40
2019-03-27T03:33:14.763Z,15.67
2019-03-27T03:35:41.648Z,17.37
2019-03-27T03:38:09.540Z,11.00
2019-03-27T03:40:37.095Z,26.60
2019-03-27T03:43:04.353Z,18.93
2019-03-27T03:45:32.009Z,10.93
2019-03-27T03:47:59.875Z,22.57
2019-03-27T03:50:40.405Z,26.00
2019-03-27T03:53:09.846Z,17.27
2019-03-27T03:55:37.530Z,16.63
2019-03-27T03:58:05.677Z,27.47
2019-03-27T04:00:33.184Z,25.53
2019-03-27T04:03:00.632Z,13.30
2019-03-27T04:05:27.527Z,18.20
2019-03-27T04:07:54.729Z,14.93
2019-03-27T04:10:21.655Z,11.47
2019-03-27T04:12:48.557Z,19.03
2019-03-27T04:15:15.827Z,23.30
2019-03-27T04:17:43.076Z,16.80
2019-03-27T04:20:10.333Z,22.90
2019-03-27T04:22:37.888Z,15.43
2019-03-27T04:25:05.660Z,20.20
2019-03-27T04:27:33.320Z,15.73
2019-03-27T04:30:01.184Z,17.00
2019-03-27T04:32:28.439Z,9.23
2019-03-27T04:34:55.445Z,21.63
2019-03-27T04:37:22.680Z,19.73
2019-03-27T04:39:50.390Z,19.77
2019-03-27T04:42:17.644Z,12.83
2019-03-27T04:44:45.206Z,23.57
2019-03-27T04:47:12.123Z,22.07
2019-03-27T04:49:40.726Z,22.20
2019-03-27T04:52:08.106Z,18.27
2019-03-27T04:54:35.646Z,17.03
2019-03-27T04:57:02.550Z,15.30
2019-03-27T04:59:29.474Z,22.30
2019-03-27T05:01:57.004Z,21.40
2019-03-27T05:04:24.547Z,26.53
2019-03-27T05:06:52.218Z,12.10
2019-03-27T05:09:19.672Z,17.53
2019-03-27T05:11:47.231Z,13.00
2019-03-27T05:14:14.318Z,14.60
2019-03-27T05:16:41.834Z,14.00
2019-03-27T05:19:09.087Z,17.50
2019-03-27T05:21:36.648Z,15.00
2019-03-27T05:24:04.214Z,10.57
2019-03-27T05:26:32.315Z,23.20
2019-03-27T05:28:59.839Z,17.20
2019-03-27T05:31:27.395Z,27.00
2019-03-27T05:33:54.959Z,14.30
2019-03-27T05:36:22.110Z,28.40
2019-03-27T05:38:49.555Z,18.90
2019-03-27T05:41:16.512Z,14.30
2019-03-27T05:43:44.067Z,21.00
2019-03-27T05:46:10.958Z,19.00
2019-03-27T05:48:38.619Z,21.70
2019-03-27T05:51:05.507Z,7.37
2019-03-27T05:53:33.079Z,12.90
2019-03-27T05:56:00.760Z,8.63
2019-03-27T05:58:28.298Z,17.37
2019-03-27T06:00:55.195Z,13.87
2019-03-27T06:03:22.906Z,19.63
2019-03-27T06:05:50.191Z,9.90
2019-03-27T06:08:17.815Z,21.47
2019-03-27T06:10:46.962Z,12.13
2019-03-27T06:13:15.232Z,15.83
2019-03-27T06:15:45.068Z,11.30
2019-03-27T06:18:13.235Z,16.50
2019-03-27T06:20:41.242Z,10.40
2019-03-27T06:23:08.803Z,11.40
2019-03-27T06:25:36.372Z,13.43
2019-03-27T06:28:03.646Z,9.43
2019-03-27T06:30:30.973Z,9.77
2019-03-27T06:32:58.224Z,10.60
2019-03-27T06:35:26.291Z,13.40
2019-03-27T06:37:53.851Z,13.70
2019-03-27T06:40:21.711Z,10.03
2019-03-27T06:42:49.275Z,14.93
2019-03-27T06:45:16.159Z,6.30
2019-03-27T06:47:43.523Z,9.70
2019-03-27T06:50:10.732Z,13.73
2019-03-27T06:52:39.104Z,8.73
2019-03-27T06:55:07.075Z,15.17
2019-03-27T06:57:33.978Z,8.07
2019-03-27T07:00:01.684Z,12.57
2019-03-27T07:02:29.187Z,7.23
2019-03-27T07:04:57.681Z,20.67
2019-03-27T07:07:24.615Z,10.00
2019-03-27T07:09:52.255Z,11.03
2019-03-27T07:12:21.393Z,5.87
2019-03-27T07:14:48.362Z,6.83
2019-03-27T07:17:15.707Z,12.13
2019-03-27T07:19:42.591Z,7.70
2019-03-27T07:22:09.819Z,13.37
2019-03-27T07:24:36.751Z,8.80
2019-03-27T07:27:03.665Z,6.73
2019-03-27T07:29:30.919Z,9.57
2019-03-27T07:31:58.783Z,7.27
2019-03-27T07:34:26.001Z,9.17
2019-03-27T07:36:56.133Z,3.50
2019-03-27T07:39:22.210Z,9.10
2019-03-27T07:41:49.107Z,10.53
2019-03-27T07:44:16.163Z,14.13
2019-03-27T07:46:43.193Z,3.17
2019-03-27T07:49:10.204Z,8.27
2019-03-27T07:51:37.095Z,5.97
2019-03-27T07:54:04.248Z,5.53
2019-03-27T07:56:31.143Z,8.40
2019-03-27T07:58:59.818Z,5.57
2019-03-27T08:01:27.164Z,4.67
2019-03-27T08:03:54.067Z,11.63
2019-03-27T08:06:20.968Z,10.30
2019-03-27T08:08:47.888Z,5.37
2019-03-27T08:11:14.851Z,4.37
2019-03-27T08:13:42.877Z,5.63
2019-03-27T08:16:10.787Z,5.23
2019-03-27T08:18:37.939Z,7.97
2019-03-27T08:21:05.532Z,7.93
2019-03-27T08:23:32.955Z,8.13
2019-03-27T08:26:00.518Z,5.83
2019-03-27T08:28:28.075Z,8.00
2019-03-27T08:30:55.370Z,5.90
2019-03-27T08:33:23.334Z,6.63
2019-03-27T08:35:50.653Z,6.13
2019-03-27T08:38:18.216Z,3.97
2019-03-27T08:40:45.462Z,5.67
2019-03-27T08:43:21.074Z,5.83
2019-03-27T08:45:41.810Z,7.70
2019-03-27T08:48:08.703Z,15.80
2019-03-27T08:50:35.599Z,6.80
2019-03-27T08:53:03.012Z,15.73
2019-03-27T08:55:30.399Z,7.07
2019-03-27T08:57:57.291Z,6.87
2019-03-27T09:00:42.312Z,12.00
2019-03-27T09:03:09.203Z,11.70
2019-03-27T09:05:37.203Z,13.13
2019-03-27T09:08:04.231Z,13.90
2019-03-27T09:10:31.516Z,32.37
2019-03-27T09:13:01.219Z,71.03
2019-03-27T09:15:28.286Z,24.47
2019-03-27T09:17:55.174Z,8.27
2019-03-27T09:20:22.066Z,7.27
2019-03-27T09:22:49.783Z,5.97
2019-03-27T09:25:16.779Z,8.53
2019-03-27T09:27:43.676Z,7.57
2019-03-27T09:30:12.875Z,15.57
2019-03-27T09:32:39.978Z,14.00
2019-03-27T09:35:07.371Z,13.20
2019-03-27T09:37:34.383Z,17.83
2019-03-27T09:40:02.175Z,7.33
2019-03-27T09:42:29.060Z,17.57
2019-03-27T09:44:56.075Z,4.47
2019-03-27T09:47:22.998Z,8.40
2019-03-27T09:49:50.195Z,4.30
2019-03-27T09:52:17.466Z,6.23
2019-03-27T09:54:44.338Z,4.20
2019-03-27T09:57:11.238Z,4.10
2019-03-27T09:59:38.270Z,7.17
2019-03-27T10:02:05.183Z,14.00
2019-03-27T10:04:32.062Z,5.53
2019-03-27T10:06:58.975Z,8.00
2019-03-27T10:09:27.415Z,6.47
2019-03-27T10:11:54.331Z,6.67
2019-03-27T10:14:21.597Z,3.77
2019-03-27T10:16:48.819Z,3.37
2019-03-27T10:19:15.849Z,7.33
2019-03-27T10:21:42.791Z,11.10
2019-03-27T10:24:10.797Z,5.83
2019-03-27T10:26:38.026Z,7.93
2019-03-27T10:29:05.233Z,10.47
2019-03-27T10:31:32.710Z,4.20
2019-03-27T10:33:59.939Z,3.40
2019-03-27T10:36:27.194Z,5.60
2019-03-27T10:38:54.855Z,2.00
2019-03-27T10:41:22.006Z,4.97
2019-03-27T10:43:50.482Z,8.33
2019-03-27T10:46:17.391Z,8.90
2019-03-27T10:48:52.572Z,3.33
2019-03-27T10:51:14.529Z,3.70
2019-03-27T10:53:41.426Z,8.33
2019-03-27T10:56:08.324Z,6.30
2019-03-27T10:58:35.577Z,4.57
2019-03-27T11:01:03.435Z,8.17
2019-03-27T11:03:30.441Z,5.07
2019-03-27T11:05:58.110Z,10.50
2019-03-27T11:08:26.292Z,4.43
2019-03-27T11:10:54.564Z,8.20
2019-03-27T11:13:23.246Z,5.60
2019-03-27T11:15:50.813Z,9.60
2019-03-27T11:18:17.695Z,5.13
2019-03-27T11:20:44.898Z,9.00
2019-03-27T11:23:11.806Z,4.40
2019-03-27T11:25:39.307Z,9.20
2019-03-27T11:28:06.863Z,6.77
2019-03-27T11:30:35.068Z,6.73
2019-03-27T11:33:01.967Z,5.50
2019-03-27T11:35:28.967Z,3.83
2019-03-27T11:37:55.960Z,5.93
2019-03-27T11:40:23.219Z,9.40
2019-03-27T11:42:50.140Z,6.47
2019-03-27T11:45:19.054Z,9.40
2019-03-27T11:47:46.921Z,6.53
2019-03-27T11:50:14.097Z,5.53
2019-03-27T11:52:41.846Z,6.87
2019-03-27T11:55:08.956Z,8.50
2019-03-27T11:57:37.410Z,11.27
2019-03-27T12:00:06.991Z,8.07
2019-03-27T12:02:34.639Z,7.47
2019-03-27T12:05:01.909Z,9.60
2019-03-27T12:07:29.911Z,8.23
2019-03-27T12:09:58.918Z,12.30
2019-03-27T12:12:26.455Z,9.30
2019-03-27T12:14:53.427Z,14.87
2019-03-27T12:17:20.607Z,7.97
2019-03-27T12:19:47.805Z,18.20
2019-03-27T12:22:15.415Z,9.53
2019-03-27T12:24:42.979Z,12.03
2019-03-27T12:27:10.243Z,12.30
2019-03-27T12:29:37.895Z,11.60
2019-03-27T12:32:05.154Z,14.50
2019-03-27T12:34:32.907Z,18.30
2019-03-27T12:37:00.163Z,11.13
2019-03-27T12:39:27.971Z,11.77
2019-03-27T12:41:55.427Z,20.27
2019-03-27T12:44:23.370Z,11.90
2019-03-27T12:46:51.996Z,15.37
2019-03-27T12:49:19.495Z,11.77
2019-03-27T12:51:47.047Z,13.53
2019-03-27T12:54:14.613Z,20.73
2019-03-27T12:56:42.278Z,13.67
2019-03-27T12:59:09.841Z,11.20
2019-03-27T13:01:36.991Z,20.93
2019-03-27T13:04:04.681Z,13.53
2019-03-27T13:06:32.303Z,17.17
2019-03-27T13:08:59.198Z,9.83
2019-03-27T13:11:26.113Z,22.43
2019-03-27T13:13:52.999Z,17.07
2019-03-27T13:16:20.606Z,10.90
2019-03-27T13:18:48.264Z,11.53
2019-03-27T13:21:25.778Z,10.80
2019-03-27T13:23:44.915Z,13.43
2019-03-27T13:26:12.471Z,13.80
2019-03-27T13:28:48.792Z,9.47
2019-03-27T13:31:20.600Z,10.63
2019-03-27T13:33:50.210Z,11.73
2019-03-27T13:36:16.387Z,7.93
2019-03-27T13:38:44.096Z,11.07
2019-03-27T13:41:11.853Z,11.50
2019-03-27T13:43:39.107Z,11.20
2019-03-27T13:46:07.587Z,17.57
2019-03-27T13:48:34.792Z,11.63
2019-03-27T13:51:02.299Z,8.73
2019-03-27T13:53:30.192Z,12.93
2019-03-27T13:55:57.451Z,8.27
2019-03-27T13:58:24.955Z,8.00
2019-03-27T14:00:52.476Z,9.13
2019-03-27T14:03:20.840Z,19.63
2019-03-27T14:05:47.744Z,6.07
2019-03-27T14:08:14.976Z,5.90
2019-03-27T14:10:42.571Z,5.23
2019-03-27T14:13:09.475Z,4.83
2019-03-27T14:15:37.172Z,5.10
2019-03-27T14:18:05.538Z,6.60
2019-03-27T14:20:32.806Z,4.23
2019-03-27T14:23:00.563Z,10.43
2019-03-27T14:25:28.223Z,6.30
2019-03-27T14:27:56.607Z,8.70
2019-03-27T14:30:42.391Z,7.40
2019-03-27T14:33:09.543Z,6.73
2019-03-27T14:35:37.307Z,7.73
2019-03-27T14:38:04.207Z,8.50
2019-03-27T14:40:31.707Z,5.60
2019-03-27T14:42:58.639Z,5.40
2019-03-27T14:45:25.903Z,11.23
2019-03-27T14:47:53.173Z,12.37
2019-03-27T14:50:20.616Z,10.27
2019-03-27T14:52:47.816Z,16.40
2019-03-27T14:55:15.736Z,11.40
2019-03-27T14:57:43.131Z,17.93
2019-03-27T15:00:10.499Z,11.60
2019-03-27T15:02:38.818Z,9.33
2019-03-27T15:05:06.139Z,11.70
2019-03-27T15:07:33.079Z,7.67
2019-03-27T15:10:01.395Z,9.43
2019-03-27T15:12:28.952Z,16.20
2019-03-27T15:14:55.867Z,7.57
2019-03-27T15:17:22.747Z,8.03
2019-03-27T15:19:49.954Z,9.90
2019-03-27T15:22:22.573Z,7.97
2019-03-27T15:24:45.666Z,14.53
2019-03-27T15:27:12.934Z,9.00
2019-03-27T15:29:40.234Z,6.23
2019-03-27T15:32:07.135Z,6.40
2019-03-27T15:34:34.122Z,5.50
2019-03-27T15:37:01.615Z,6.43
2019-03-27T15:39:29.458Z,8.63
2019-03-27T15:41:56.808Z,8.33
2019-03-27T15:44:23.726Z,5.40
2019-03-27T15:46:52.223Z,9.80
2019-03-27T15:49:19.116Z,10.50
2019-03-27T15:51:47.833Z,5.00
2019-03-27T15:54:14.915Z,10.87
2019-03-27T15:56:42.255Z,4.40
2019-03-27T15:59:09.231Z,6.90
2019-03-27T16:01:36.222Z,6.37
2019-03-27T16:04:03.324Z,8.23
2019-03-27T16:06:30.383Z,7.60
2019-03-27T16:08:57.724Z,7.90
2019-03-27T16:11:26.407Z,6.23
2019-03-27T16:13:53.799Z,12.00
2019-03-27T16:16:20.829Z,8.50
2019-03-27T16:18:47.727Z,12.17
2019-03-27T16:21:14.655Z,7.30
2019-03-27T16:23:41.911Z,12.17
2019-03-27T16:26:08.814Z,14.80
2019-03-27T16:28:36.531Z,12.63
2019-03-27T16:31:04.204Z,12.60
2019-03-27T16:33:31.094Z,11.37
2019-03-27T16:35:58.591Z,11.47
2019-03-27T16:38:26.903Z,16.30
2019-03-27T16:40:54.124Z,15.03
2019-03-27T16:43:21.039Z,8.10
2019-03-27T16:45:48.651Z,14.97
2019-03-27T16:48:16.803Z,15.03
2019-03-27T16:50:43.734Z,21.00
2019-03-27T16:53:11.100Z,18.60
2019-03-27T16:55:39.115Z,19.50
2019-03-27T16:58:06.340Z,13.37
2019-03-27T17:00:33.680Z,7.63
2019-03-27T17:03:01.031Z,11.77
2019-03-27T17:05:28.587Z,20.85
2019-03-27T17:07:55.491Z,21.30
2019-03-27T17:10:22.403Z,17.03
2019-03-27T17:12:49.316Z,7.50
2019-03-27T17:15:16.243Z,10.93
2019-03-27T17:17:43.579Z,6.03
2019-03-27T17:20:11.059Z,21.97
2019-03-27T17:22:38.071Z,11.93
2019-03-27T17:25:05.127Z,8.03
2019-03-27T17:27:32.363Z,11.87
2019-03-27T17:29:59.271Z,16.27
2019-03-27T17:32:26.521Z,16.27
2019-03-27T17:34:53.772Z,10.47
2019-03-27T17:37:21.123Z,21.63
2019-03-27T17:39:48.784Z,9.60
2019-03-27T17:42:16.343Z,16.30
2019-03-27T17:44:43.899Z,10.97
2019-03-27T17:47:11.158Z,13.90
2019-03-27T17:49:38.491Z,12.20
2019-03-27T17:52:06.083Z,15.80
2019-03-27T17:54:33.739Z,13.47
2019-03-27T17:57:01.405Z,15.07
2019-03-27T17:59:28.751Z,13.50
2019-03-27T18:01:56.009Z,17.80
2019-03-27T18:04:23.290Z,11.07
2019-03-27T18:06:50.608Z,16.60
2019-03-27T18:09:18.164Z,17.80
2019-03-27T18:11:45.452Z,21.20
2019-03-27T18:14:12.664Z,17.47
2019-03-27T18:16:39.607Z,15.90
2019-03-27T18:19:07.991Z,12.77
2019-03-27T18:21:35.664Z,18.10
2019-03-27T18:24:02.712Z,18.40
2019-03-27T18:26:30.563Z,18.43
2019-03-27T18:28:57.826Z,12.67
2019-03-27T18:31:25.176Z,11.53
2019-03-27T18:33:52.731Z,25.80
2019-03-27T18:36:20.494Z,18.93
2019-03-27T18:38:47.725Z,18.57
2019-03-27T18:41:14.610Z,24.60
2019-03-27T18:43:41.796Z,35.33
2019-03-27T18:46:08.704Z,14.57
2019-03-27T18:48:36.251Z,22.73
2019-03-27T18:51:03.219Z,20.63
2019-03-27T18:53:30.286Z,19.47
2019-03-27T18:55:57.179Z,19.10
2019-03-27T18:58:24.579Z,15.20
2019-03-27T19:00:51.555Z,27.27
2019-03-27T19:03:18.455Z,18.73
2019-03-27T19:05:45.788Z,17.10
2019-03-27T19:08:12.863Z,26.43
2019-03-27T19:10:40.037Z,19.90
2019-03-27T19:13:07.327Z,28.47
2019-03-27T19:15:34.276Z,20.90
2019-03-27T19:18:02.276Z,22.10
2019-03-27T19:20:29.279Z,16.30
2019-03-27T19:22:56.651Z,17.90
2019-03-27T19:25:23.555Z,15.17
2019-03-27T19:27:51.761Z,17.13
2019-03-27T19:30:19.138Z,26.03
2019-03-27T19:32:46.667Z,21.10
2019-03-27T19:35:14.963Z,18.30
2019-03-27T19:37:44.658Z,14.90
2019-03-27T19:40:11.952Z,31.83
2019-03-27T19:42:39.398Z,27.93
2019-03-27T19:45:08.475Z,23.10
2019-03-27T19:47:36.341Z,21.13
2019-03-27T19:50:05.815Z,40.47
2019-03-27T19:52:33.378Z,24.47
2019-03-27T19:55:01.360Z,24.40
2019-03-27T19:57:29.892Z,30.20
2019-03-27T19:59:57.741Z,16.60
2019-03-27T20:02:24.909Z,21.37
2019-03-27T20:04:52.439Z,29.47
2019-03-27T20:07:19.773Z,19.13
2019-03-27T20:09:47.284Z,26.60
2019-03-27T20:12:14.806Z,25.50
2019-03-27T20:14:42.775Z,22.13
2019-03-27T20:17:10.849Z,30.93
2019-03-27T20:19:38.976Z,25.67
2019-03-27T20:22:06.013Z,29.03
2019-03-27T20:24:41.031Z,36.33
2019-03-27T20:27:02.547Z,32.53
2019-03-27T20:29:30.075Z,45.93
2019-03-27T20:31:57.199Z,22.13
2019-03-27T20:34:24.314Z,33.40
2019-03-27T20:36:51.817Z,36.60
2019-03-27T20:39:19.918Z,30.27
2019-03-27T20:41:47.573Z,35.93
2019-03-27T20:44:14.756Z,37.47
2019-03-27T20:46:42.468Z,30.23
2019-03-27T20:49:09.730Z,28.33
2019-03-27T20:51:36.972Z,33.73
2019-03-27T20:54:04.529Z,29.33
2019-03-27T20:56:32.503Z,30.33
2019-03-27T20:59:01.311Z,43.70
2019-03-27T21:01:30.711Z,24.17
2019-03-27T21:03:58.268Z,30.70
2019-03-27T21:06:25.743Z,31.53
2019-03-27T21:08:53.072Z,32.03
2019-03-27T21:11:19.970Z,21.27
2019-03-27T21:13:47.279Z,35.40
2019-03-27T21:16:14.571Z,40.03
2019-03-27T21:18:42.068Z,31.20
2019-03-27T21:21:10.036Z,36.67
2019-03-27T21:23:36.933Z,26.17
2019-03-27T21:26:04.336Z,41.80
2019-03-27T21:28:31.358Z,27.23
2019-03-27T21:30:58.730Z,30.20
2019-03-27T21:33:25.693Z,29.97
2019-03-27T21:35:52.670Z,32.00
2019-03-27T21:38:19.534Z,34.20
2019-03-27T21:40:46.749Z,23.93
2019-03-27T21:43:13.973Z,38.50
2019-03-27T21:45:40.941Z,33.70
2019-03-27T21:48:07.835Z,33.77
2019-03-27T21:50:36.550Z,32.10
2019-03-27T21:53:04.291Z,24.00
2019-03-27T21:55:42.190Z,26.77
2019-03-27T21:58:00.867Z,33.83
2019-03-27T22:00:37.747Z,38.30
2019-03-27T22:03:06.039Z,24.47
2019-03-27T22:05:33.037Z,29.47
2019-03-27T22:08:01.935Z,40.70
2019-03-27T22:10:28.847Z,37.03
2019-03-27T22:12:56.363Z,35.27
2019-03-27T22:15:23.267Z,23.13
2019-03-27T22:17:50.163Z,35.43
2019-03-27T22:20:17.503Z,26.73
2019-03-27T22:22:44.403Z,28.80
2019-03-27T22:25:11.296Z,37.23
2019-03-27T22:27:38.951Z,30.47
2019-03-27T22:30:06.395Z,34.07
2019-03-27T22:32:33.567Z,27.40
2019-03-27T22:35:00.534Z,35.60
2019-03-27T22:37:27.427Z,28.90
2019-03-27T22:39:55.016Z,31.43
2019-03-27T22:42:22.769Z,74.37
2019-03-27T22:44:50.348Z,28.10
2019-03-27T22:47:17.443Z,40.10
2019-03-27T22:49:44.739Z,32.07
2019-03-27T22:52:12.083Z,22.37
2019-03-27T22:54:39.338Z,34.80
2019-03-27T22:57:07.739Z,36.17
2019-03-27T22:59:35.272Z,57.53
2019-03-27T23:02:02.533Z,44.33
2019-03-27T23:04:30.087Z,24.43
2019-03-27T23:06:57.335Z,27.30
2019-03-27T23:09:24.692Z,30.17
2019-03-27T23:11:52.047Z,55.53
2019-03-27T23:14:19.911Z,36.23
2019-03-27T23:16:47.119Z,70.40
2019-03-27T23:19:14.360Z,52.73
2019-03-27T23:21:43.103Z,40.97
2019-03-27T23:24:10.767Z,33.13
2019-03-27T23:26:38.110Z,41.47
2019-03-27T23:29:05.487Z,30.13
2019-03-27T23:31:33.067Z,28.13
2019-03-27T23:34:00.578Z,24.70
2019-03-27T23:36:27.843Z,30.77
2019-03-27T23:38:55.147Z,27.70
2019-03-27T23:41:22.345Z,25.30
2019-03-27T23:43:49.903Z,26.67
2019-03-27T23:46:18.227Z,32.13
2019-03-27T23:48:46.143Z,23.87
2019-03-27T23:51:13.810Z,29.23
2019-03-27T23:53:41.362Z,23.20
2019-03-27T23:56:16.449Z,29.03
2019-03-27T23:58:38.990Z,31.03
